Historyczne dane pomiarowe

Dodano dane terminowe – wersja testowa.

Dane z okresu 1951-2019

Wersja bazy: 1.34 [2019-03-16, lista zmian], aktualizacja planowana na 2019-04-15

Dane meteo z obszaru Polski uzyskane na podstawie danych udostępnionych przez Instytut Meteorologii i Gospodarki Wodnej – Państwowy Instytut Badawczy.

 

Wybierz Datę:    

       

TemperaturaWilgotnośćZachmurzenieWiatrCiśnienieWidzialnośćZjawiska
 Data    tng td wb rh cc ccl cl cm ch dir g1 g2 mslp ppp      
1994-08-09 00:00:00 17.8--- 16.5 17.092wxwxwx0wx--1014.5 974.4 0.7---wxw1
1994-08-09 01:00:00 17.6--- 16.5 16.993wxwxwx0wx--1014.1 974.0----wx
1994-08-09 02:00:00 17.6--- 16.5 16.993wxwxwx0wx--1013.5 973.5----wx
1994-08-09 03:00:00 17.7--- 16.8 17.194wxwxwx0wx--1013.3 973.3----wx
1994-08-09 04:00:00 17.7--- 16.9 17.295wxwxwx0wx--1013.5 973.5----wx
1994-08-09 05:00:00 17.4--- 16.8 17.096wxwxwx0wx--1013.6 973.5----wx
1994-08-09 06:00:00 17.5--- 16.9 17.196wxwxwx2wx--1014.0 973.9 2.5---wxw1
1994-08-09 07:00:00 17.6--- 17.0 17.296wxwxwx0wx--1014.4 974.3----wxw1
1994-08-09 08:00:00 17.3--- 16.8 17.097wxwxwx3wx--1014.8 974.7----wxw1
1994-08-09 09:00:00 18.0--- 17.2 17.595wxwxwx3wx--1014.6 974.6----wxw1
1994-08-09 10:00:00 19.5--- 17.0 17.986wxwxwx2wx--1014.4 974.6----wx
1994-08-09 11:00:00 21.2--- 16.2 18.073wxwxwx3wx--1014.2 974.6----wx
1994-08-09 12:00:00 21.6--- 15.4 17.768wxwxwx3wx--1013.9 974.4 9.2---wxw1
1994-08-09 13:00:00 22.6--- 15.4 18.064wxwxwx3wx--1013.6 974.2----wx
1994-08-09 14:00:00 24.0--- 14.1 17.854wxwxwx4wx--1013.1 973.9----wx
1994-08-09 15:00:00 24.4--- 13.6 17.751wxwxwxwx2wx--1012.7 973.6----wx
1994-08-09 16:00:00 24.0--- 13.3 17.451wxwxwxwx2wx--1012.6 973.4----wx
1994-08-09 17:00:00 23.3--- 13.6 17.355wxwxwxwx1wx--1012.7 973.4----wx
1994-08-09 18:00:00 22.5--- 14.7 17.661wxwxwxwx1wx--1012.5 973.1 0.0---wx
1994-08-09 19:00:00 18.2--- 16.1 16.988wxwxwxwx0wx--1013.1 973.2----wx
1994-08-09 20:00:00 17.2--- 15.3 16.088wxwx0wx--1013.4 973.3----wx
1994-08-09 21:00:00 15.8--- 13.8 14.688wxwx0wx--1013.7 973.4----wx
1994-08-09 22:00:00 14.8--- 13.8 14.294wxwx0wx--1013.5 973.1----wx
1994-08-09 23:00:00 14.0--- 13.2 13.595wxwx0wx--1013.2 972.7----wx

 

Źródłem pochodzenia danych jest Instytut Meteorologii i Gospodarki Wodnej – Państwowy Instytut Badawczy. Dane Instytutu Meteorologii i Gospodarki Wodnej – Państwowego Instytutu Badawczego zostały przetworzone.

Dane źródłowe można odnaleźć na stronie https://dane.imgw.pl